createdAt,value
2022-11-22T00:02:07.250Z,95853.03
2022-11-22T00:04:54.143Z,95861.66
2022-11-22T00:07:41.146Z,95854.63
2022-11-22T00:10:28.314Z,95857.88
2022-11-22T00:13:16.312Z,95846.41
2022-11-22T00:16:04.714Z,95845.31
2022-11-22T00:18:51.636Z,95841.75
2022-11-22T00:21:38.750Z,95834.38
2022-11-22T00:24:25.690Z,95835.81
2022-11-22T00:27:12.659Z,95843.00
2022-11-22T00:29:59.577Z,95848.22
2022-11-22T00:32:46.740Z,95847.50
2022-11-22T00:35:33.650Z,95845.88
2022-11-22T00:38:20.505Z,95837.09
2022-11-22T00:41:07.408Z,95835.28
2022-11-22T00:43:54.329Z,95830.06
2022-11-22T00:46:41.432Z,95819.09
2022-11-22T00:49:28.416Z,95808.31
2022-11-22T00:52:15.663Z,95811.56
2022-11-22T00:55:02.800Z,95830.44
2022-11-22T00:57:49.732Z,95834.56
2022-11-22T01:00:36.713Z,95831.50
2022-11-22T01:03:23.803Z,95847.50
2022-11-22T01:06:10.928Z,95848.03
2022-11-22T01:08:58.104Z,95839.75
2022-11-22T01:11:45.113Z,95840.84
2022-11-22T01:14:32.125Z,95858.09
2022-11-22T01:17:19.093Z,95852.34
2022-11-22T01:20:07.040Z,95853.41
2022-11-22T01:22:54.024Z,95855.41
2022-11-22T01:25:44.461Z,95860.22
2022-11-22T01:28:31.584Z,95856.13
2022-11-22T01:31:18.528Z,95851.44
2022-11-22T01:34:06.353Z,95848.59
2022-11-22T01:36:53.270Z,95843.56
2022-11-22T01:39:40.437Z,95848.75
2022-11-22T01:42:50.796Z,95851.09
2022-11-22T01:45:42.728Z,95858.47
2022-11-22T01:48:46.777Z,95866.19
2022-11-22T01:51:48.436Z,95866.00
2022-11-22T01:54:40.346Z,95860.25
2022-11-22T01:57:33.401Z,95847.31
2022-11-22T02:00:20.464Z,95838.72
2022-11-22T02:03:10.861Z,95836.91
2022-11-22T02:05:58.113Z,95843.00
2022-11-22T02:09:09.236Z,95844.75
2022-11-22T02:12:00.210Z,95837.56
2022-11-22T02:14:47.662Z,95841.13
2022-11-22T02:17:34.804Z,95821.22
2022-11-22T02:20:21.719Z,95828.03
2022-11-22T02:23:43.174Z,95833.25
2022-11-22T02:26:31.513Z,95828.81
2022-11-22T02:29:19.333Z,95837.69
2022-11-22T02:32:06.254Z,95831.34
2022-11-22T02:34:53.197Z,95834.63
2022-11-22T02:37:40.268Z,95830.69
2022-11-22T02:40:31.608Z,95843.25
2022-11-22T02:43:22.082Z,95842.16
2022-11-22T02:46:11.732Z,95827.28
2022-11-22T02:48:58.804Z,95824.22
2022-11-22T02:51:46.749Z,95827.63
2022-11-22T02:54:33.673Z,95833.72
2022-11-22T02:57:20.616Z,95833.31
2022-11-22T03:00:08.540Z,95837.41
2022-11-22T03:02:55.471Z,95840.03
2022-11-22T03:05:42.449Z,95831.66
2022-11-22T03:08:29.855Z,95834.56
2022-11-22T03:11:17.003Z,95824.50
2022-11-22T03:14:04.198Z,95824.28
2022-11-22T03:16:51.522Z,95825.03
2022-11-22T03:19:38.443Z,95822.91
2022-11-22T03:22:25.739Z,95833.69
2022-11-22T03:25:12.653Z,95830.13
2022-11-22T03:27:59.601Z,95824.00
2022-11-22T03:30:46.542Z,95833.16
2022-11-22T03:33:34.487Z,95834.63
2022-11-22T03:36:21.688Z,95845.97
2022-11-22T03:39:08.880Z,95841.84
2022-11-22T03:41:56.472Z,95843.28
2022-11-22T03:44:43.589Z,95861.59
2022-11-22T03:47:30.529Z,95856.59
2022-11-22T03:50:17.452Z,95864.50
2022-11-22T03:53:04.765Z,95866.09
2022-11-22T03:55:51.907Z,95861.44
2022-11-22T03:58:38.836Z,95866.25
2022-11-22T04:01:25.787Z,95864.09
2022-11-22T04:04:12.982Z,95868.41
2022-11-22T04:07:00.091Z,95868.94
2022-11-22T04:09:46.992Z,95865.91
2022-11-22T04:12:34.189Z,95874.34
2022-11-22T04:15:21.133Z,95871.47
2022-11-22T04:18:14.900Z,95875.22
2022-11-22T04:21:20.704Z,95889.97
2022-11-22T04:24:29.130Z,95885.09
2022-11-22T04:27:16.045Z,95877.03
2022-11-22T04:30:03.334Z,95883.13
2022-11-22T04:32:52.767Z,95886.72
2022-11-22T04:35:40.493Z,95867.38
2022-11-22T04:38:27.844Z,95866.69
2022-11-22T04:41:14.964Z,95874.03
2022-11-22T04:44:20.720Z,95867.44
2022-11-22T04:47:11.960Z,95875.69
2022-11-22T04:49:58.898Z,95879.97
2022-11-22T04:52:55.116Z,95873.72
2022-11-22T04:55:44.969Z,95880.72
2022-11-22T04:58:31.876Z,95892.56
2022-11-22T05:01:18.930Z,95894.91
2022-11-22T05:04:05.907Z,95895.78
2022-11-22T05:06:53.200Z,95897.06
2022-11-22T05:09:40.242Z,95897.97
2022-11-22T05:12:27.204Z,95894.72
2022-11-22T05:15:14.566Z,95887.19
2022-11-22T05:18:01.608Z,95894.00
2022-11-22T05:20:48.747Z,95902.78
2022-11-22T05:23:54.500Z,95900.66
2022-11-22T05:26:42.038Z,95905.69
2022-11-22T05:29:29.228Z,95902.81
2022-11-22T05:32:16.394Z,95910.34
2022-11-22T05:35:03.645Z,95919.50
2022-11-22T05:37:50.715Z,95929.38
2022-11-22T05:40:37.770Z,95927.75
2022-11-22T05:43:24.652Z,95936.56
2022-11-22T05:46:24.235Z,95941.75
2022-11-22T05:49:12.181Z,95945.53
2022-11-22T05:51:59.400Z,95952.88
2022-11-22T05:54:46.438Z,95955.34
2022-11-22T05:57:33.398Z,95964.19
2022-11-22T06:00:20.605Z,95976.38
2022-11-22T06:03:07.514Z,95978.16
2022-11-22T06:05:54.445Z,95985.38
2022-11-22T06:08:43.364Z,95985.38
2022-11-22T06:11:30.556Z,95996.50
2022-11-22T06:14:17.490Z,95991.66
2022-11-22T06:17:04.401Z,95995.44
2022-11-22T06:19:51.518Z,95994.69
2022-11-22T06:22:38.412Z,95981.78
2022-11-22T06:25:25.628Z,95982.69
2022-11-22T06:28:12.521Z,96005.09
2022-11-22T06:31:08.083Z,96008.84
2022-11-22T06:34:00.088Z,96015.16
2022-11-22T06:36:47.071Z,96016.91
2022-11-22T06:39:34.243Z,96012.81
2022-11-22T06:42:21.197Z,96023.06
2022-11-22T06:45:08.830Z,96023.22
2022-11-22T06:47:58.312Z,96022.63
2022-11-22T06:50:45.901Z,96024.84
2022-11-22T06:53:50.473Z,96019.63
2022-11-22T06:56:39.272Z,96028.81
2022-11-22T06:59:26.321Z,96018.00
2022-11-22T07:02:13.440Z,96017.47
2022-11-22T07:05:24.425Z,96020.72
2022-11-22T07:08:13.538Z,96022.91
2022-11-22T07:11:09.084Z,96027.94
2022-11-22T07:14:01.887Z,96021.81
2022-11-22T07:16:54.079Z,96025.94
2022-11-22T07:19:40.964Z,96030.81
2022-11-22T07:22:28.632Z,96032.38
2022-11-22T07:25:15.568Z,96033.44
2022-11-22T07:28:02.478Z,96022.53
2022-11-22T07:30:49.680Z,96027.44
2022-11-22T07:33:36.717Z,96007.31
2022-11-22T07:36:23.840Z,96006.81
2022-11-22T07:39:11.301Z,96002.84
2022-11-22T07:41:58.209Z,96013.28
2022-11-22T07:44:45.083Z,96025.31
2022-11-22T07:47:32.169Z,96045.97
2022-11-22T07:50:19.067Z,96048.31
2022-11-22T07:53:08.423Z,96051.19
2022-11-22T07:55:55.293Z,96049.22
2022-11-22T07:58:42.276Z,96057.31
2022-11-22T08:01:29.438Z,96059.47
2022-11-22T08:04:16.581Z,96060.91
2022-11-22T08:07:03.742Z,96058.38
2022-11-22T08:09:50.650Z,96065.03
2022-11-22T08:12:37.656Z,96065.59
2022-11-22T08:15:24.505Z,96068.63
2022-11-22T08:18:11.411Z,96064.88
2022-11-22T08:21:09.664Z,96075.81
2022-11-22T08:23:59.435Z,96084.47
2022-11-22T08:26:46.422Z,96094.69
2022-11-22T08:29:33.358Z,96097.22
2022-11-22T08:32:20.256Z,96100.09
2022-11-22T08:35:07.840Z,96102.78
2022-11-22T08:37:56.562Z,96115.38
2022-11-22T08:40:43.451Z,96117.72
2022-11-22T08:43:31.364Z,96119.72
2022-11-22T08:46:19.538Z,96114.13
2022-11-22T08:49:09.207Z,96116.28
2022-11-22T08:51:56.121Z,96118.63
2022-11-22T08:54:43.034Z,96111.97
2022-11-22T08:57:29.948Z,96108.94
2022-11-22T09:00:17.320Z,96095.06
2022-11-22T09:03:04.245Z,96105.31
2022-11-22T09:09:22.182Z,96110.00
2022-11-22T09:12:05.603Z,96119.16
2022-11-22T09:14:52.763Z,96120.59
2022-11-22T09:17:39.639Z,96119.34
2022-11-22T09:20:26.529Z,96124.91
2022-11-22T09:23:13.358Z,96128.69
2022-11-22T09:26:09.427Z,96126.13
2022-11-22T09:28:57.280Z,96128.31
2022-11-22T09:31:44.396Z,96127.03
2022-11-22T09:34:31.288Z,96137.09
2022-11-22T09:37:19.914Z,96137.44
2022-11-22T09:40:08.044Z,96141.59
2022-11-22T09:43:17.208Z,96145.03
2022-11-22T09:46:16.163Z,96142.31
2022-11-22T09:49:35.428Z,96138.72
2022-11-22T09:52:51.010Z,96149.00
2022-11-22T09:55:50.089Z,96148.47
2022-11-22T09:58:52.382Z,96139.28
2022-11-22T10:01:43.967Z,96147.34
2022-11-22T10:04:54.762Z,96143.41
2022-11-22T10:07:49.259Z,96148.59
2022-11-22T10:10:42.165Z,96147.50
2022-11-22T10:13:36.089Z,96147.31
2022-11-22T10:16:41.788Z,96147.13
2022-11-22T10:20:11.293Z,96142.25
2022-11-22T10:22:59.207Z,96136.47
2022-11-22T10:25:54.742Z,96139.00
2022-11-22T10:28:52.421Z,96152.47
2022-11-22T10:31:54.818Z,96140.59
2022-11-22T10:35:35.028Z,96147.09
2022-11-22T10:38:46.214Z,96140.59
2022-11-22T10:41:42.015Z,96137.16
2022-11-22T10:44:54.521Z,96136.63
2022-11-22T10:47:58.087Z,96127.97
2022-11-22T10:51:36.785Z,96130.50
2022-11-22T10:54:32.242Z,96123.28
2022-11-22T10:57:47.370Z,96116.66
2022-11-22T11:00:39.489Z,96110.50
2022-11-22T11:03:37.527Z,96115.38
2022-11-22T11:07:04.585Z,96110.31
2022-11-22T11:10:13.711Z,96104.38
2022-11-22T11:13:31.805Z,96109.03
2022-11-22T11:16:22.600Z,96105.09
2022-11-22T11:19:18.720Z,96107.38
2022-11-22T11:22:51.564Z,96095.53
2022-11-22T11:25:43.276Z,96101.44
2022-11-22T11:28:30.935Z,96103.59
2022-11-22T11:31:21.804Z,96098.19
2022-11-22T11:34:28.156Z,96105.47
2022-11-22T11:37:27.568Z,96111.53
2022-11-22T11:40:32.044Z,96112.78
2022-11-22T11:43:21.615Z,96119.44
2022-11-22T11:46:19.993Z,96112.59
2022-11-22T11:49:14.236Z,96115.13
2022-11-22T11:52:16.293Z,96110.59
2022-11-22T11:55:03.310Z,96112.41
2022-11-22T11:57:52.516Z,96111.88
2022-11-22T12:00:40.217Z,96108.66
2022-11-22T12:03:27.832Z,96118.06
2022-11-22T12:06:14.861Z,96119.16
2022-11-22T12:09:22.695Z,96115.75
2022-11-22T12:12:27.137Z,96116.66
2022-11-22T12:15:26.227Z,96116.50
2022-11-22T12:19:03.992Z,96112.34
2022-11-22T12:22:01.477Z,96108.91
2022-11-22T12:25:17.006Z,96100.81
2022-11-22T12:28:28.142Z,96110.91
2022-11-22T12:31:37.211Z,96105.72
2022-11-22T12:34:30.096Z,96101.75
2022-11-22T12:37:40.205Z,96097.03
2022-11-22T12:40:34.330Z,96105.72
2022-11-22T12:43:26.102Z,96106.22
2022-11-22T12:46:43.755Z,96104.06
2022-11-22T12:49:37.648Z,96119.06
2022-11-22T12:53:05.676Z,96125.34
2022-11-22T12:56:18.328Z,96118.66
2022-11-22T12:59:32.257Z,96123.69
2022-11-22T13:03:03.354Z,96141.13
2022-11-22T13:05:55.574Z,96143.06
2022-11-22T13:12:30.888Z,96146.16
2022-11-22T13:15:27.168Z,96147.91
2022-11-22T13:18:16.897Z,96144.00
2022-11-22T13:21:18.728Z,96152.25
2022-11-22T13:24:30.704Z,96147.25
2022-11-22T13:27:32.320Z,96140.59
2022-11-22T13:30:23.970Z,96133.03
2022-11-22T13:33:25.987Z,96128.53
2022-11-22T13:36:43.593Z,96125.50
2022-11-22T13:39:30.488Z,96128.38
2022-11-22T13:42:24.633Z,96129.84
2022-11-22T13:45:23.187Z,96131.47
2022-11-22T13:48:10.839Z,96132.38
2022-11-22T13:51:01.741Z,96128.78
2022-11-22T13:53:52.682Z,96126.78
2022-11-22T13:56:58.796Z,96124.28
2022-11-22T13:59:46.873Z,96121.19
2022-11-22T14:02:34.196Z,96126.41
2022-11-22T14:05:41.390Z,96125.34
2022-11-22T14:08:49.081Z,96133.63
2022-11-22T14:11:53.920Z,96125.72
2022-11-22T14:15:11.485Z,96125.00
2022-11-22T14:18:41.371Z,96127.13
2022-11-22T14:22:20.737Z,96129.69
2022-11-22T14:25:50.722Z,96134.53
2022-11-22T14:28:58.572Z,96137.44
2022-11-22T14:31:56.093Z,96145.69
2022-11-22T14:35:04.102Z,96149.84
2022-11-22T14:38:28.404Z,96153.66
2022-11-22T14:41:42.019Z,96158.69
2022-11-22T14:44:34.270Z,96165.00
2022-11-22T14:47:21.447Z,96164.47
2022-11-22T14:50:15.777Z,96169.16
2022-11-22T14:53:21.649Z,96167.50
2022-11-22T14:56:33.038Z,96172.19
2022-11-22T15:00:03.805Z,96164.28
2022-11-22T15:03:21.782Z,96170.03
2022-11-22T15:09:12.139Z,96167.50
2022-11-22T15:10:29.694Z,96174.53
2022-11-22T15:13:45.245Z,96175.06
2022-11-22T15:57:54.221Z,96229.78
2022-11-22T16:00:43.869Z,96237.34
2022-11-22T16:03:38.127Z,96237.72
2022-11-22T16:06:27.984Z,96239.13
2022-11-22T16:09:29.388Z,96241.31
2022-11-22T16:12:35.621Z,96240.94
2022-11-22T16:15:36.445Z,96244.00
2022-11-22T16:18:28.227Z,96250.09
2022-11-22T16:21:27.280Z,96251.38
2022-11-22T16:24:18.531Z,96247.25
2022-11-22T16:27:15.067Z,96249.22
2022-11-22T16:30:01.938Z,96259.47
2022-11-22T16:32:49.798Z,96252.47
2022-11-22T16:35:36.751Z,96260.56
2022-11-22T16:38:25.413Z,96256.41
2022-11-22T16:41:21.593Z,96257.47
2022-11-22T16:44:13.486Z,96256.41
2022-11-22T16:47:00.998Z,96259.13
2022-11-22T16:49:48.927Z,96268.13
2022-11-22T16:52:36.725Z,96260.03
2022-11-22T16:55:23.911Z,96258.75
2022-11-22T16:58:18.559Z,96265.59
2022-11-22T17:01:05.696Z,96273.88
2022-11-22T17:03:55.731Z,96273.88
2022-11-22T17:06:44.431Z,96277.66
2022-11-22T17:09:31.521Z,96277.31
2022-11-22T17:12:32.186Z,96278.59
2022-11-22T17:15:25.121Z,96280.94
2022-11-22T17:18:12.304Z,96286.50
2022-11-22T17:20:59.459Z,96284.34
2022-11-22T17:23:46.819Z,96282.72
2022-11-22T17:26:34.827Z,96290.81
2022-11-22T17:29:49.349Z,96284.16
2022-11-22T17:32:28.731Z,96286.69
2022-11-22T17:35:15.640Z,96290.28
2022-11-22T17:38:02.584Z,96300.34
2022-11-22T17:40:50.216Z,96295.88
2022-11-22T17:43:38.089Z,96296.38
2022-11-22T17:46:24.991Z,96298.03
2022-11-22T17:49:15.751Z,96297.50
2022-11-22T17:52:03.364Z,96295.66
2022-11-22T17:54:50.371Z,96300.19
2022-11-22T17:57:37.368Z,96303.59
2022-11-22T18:00:29.894Z,96309.38
2022-11-22T18:03:17.096Z,96302.34
2022-11-22T18:06:04.608Z,96299.84
2022-11-22T18:08:51.643Z,96295.66
2022-11-22T18:11:38.636Z,96301.78
2022-11-22T18:14:26.158Z,96300.16
2022-11-22T18:17:14.081Z,96305.22
2022-11-22T18:20:01.719Z,96295.69
2022-11-22T18:22:48.624Z,96302.50
2022-11-22T18:25:37.149Z,96297.84
2022-11-22T18:28:24.074Z,96309.91
2022-11-22T18:31:10.986Z,96310.09
2022-11-22T18:33:57.908Z,96306.66
2022-11-22T18:37:13.922Z,96313.31
2022-11-22T18:39:51.673Z,96318.72
2022-11-22T18:42:38.835Z,96315.28
2022-11-22T18:45:33.392Z,96316.91
2022-11-22T18:48:20.272Z,96316.91
2022-11-22T18:51:08.767Z,96316.75
2022-11-22T18:53:55.648Z,96323.41
2022-11-22T18:56:42.599Z,96319.09
2022-11-22T18:59:29.559Z,96325.38
2022-11-22T19:02:16.640Z,96325.56
2022-11-22T19:05:04.235Z,96326.47
2022-11-22T19:07:51.265Z,96332.25
2022-11-22T19:10:38.162Z,96330.06
2022-11-22T19:13:25.172Z,96326.09
2022-11-22T19:16:15.217Z,96323.94
2022-11-22T19:19:02.333Z,96332.59
2022-11-22T19:21:49.216Z,96329.00
2022-11-22T19:24:36.160Z,96325.94
2022-11-22T19:27:24.184Z,96336.53
2022-11-22T19:30:12.046Z,96335.09
2022-11-22T19:32:58.965Z,96343.41
2022-11-22T19:35:59.543Z,96346.63
2022-11-22T19:38:46.776Z,96346.09
2022-11-22T19:41:33.763Z,96346.63
2022-11-22T19:44:21.152Z,96343.94
2022-11-22T19:47:08.062Z,96358.69
2022-11-22T19:49:54.957Z,96362.47
2022-11-22T19:52:41.993Z,96365.00
2022-11-22T19:55:28.851Z,96363.03
2022-11-22T19:58:17.482Z,96356.34
2022-11-22T20:01:10.621Z,96362.47
2022-11-22T20:04:03.684Z,96364.09
2022-11-22T20:06:50.657Z,96364.44
2022-11-22T20:09:37.901Z,96368.59
2022-11-22T20:12:24.768Z,96372.91
2022-11-22T20:15:11.759Z,96364.81
2022-11-22T20:17:58.801Z,96370.56
2022-11-22T20:20:45.791Z,96364.25
2022-11-22T20:23:33.684Z,96357.41
2022-11-22T20:26:21.478Z,96362.47
2022-11-22T20:29:12.590Z,96361.75
2022-11-22T20:32:01.495Z,96361.03
2022-11-22T20:34:48.495Z,96371.28
2022-11-22T20:37:35.554Z,96368.94
2022-11-22T20:40:22.470Z,96367.31
2022-11-22T20:43:09.411Z,96366.59
2022-11-22T20:46:03.705Z,96369.84
2022-11-22T20:48:54.199Z,96372.16
2022-11-22T20:51:42.216Z,96379.16
2022-11-22T20:54:29.767Z,96386.19
2022-11-22T20:57:16.922Z,96382.59
2022-11-22T21:00:04.444Z,96379.16
2022-11-22T21:02:51.472Z,96375.03
2022-11-22T21:05:38.608Z,96371.41
2022-11-22T21:08:25.535Z,96372.69
2022-11-22T21:11:17.796Z,96383.09
2022-11-22T21:14:04.791Z,96382.75
2022-11-22T21:16:51.709Z,96378.63
2022-11-22T21:19:39.940Z,96384.53
2022-11-22T21:22:31.534Z,96379.50
2022-11-22T21:25:18.763Z,96379.84
2022-11-22T21:28:06.617Z,96379.16
2022-11-22T21:30:58.135Z,96371.06
2022-11-22T21:33:48.384Z,96371.59
2022-11-22T21:36:35.286Z,96370.91
2022-11-22T21:39:22.333Z,96379.69
2022-11-22T21:42:09.638Z,96384.53
2022-11-22T21:44:56.553Z,96387.25
2022-11-22T21:47:43.482Z,96385.47
2022-11-22T21:50:30.405Z,96396.97
2022-11-22T21:53:17.364Z,96387.06
2022-11-22T21:56:04.423Z,96389.25
2022-11-22T21:58:51.302Z,96384.75
2022-11-22T22:01:38.495Z,96397.91
2022-11-22T22:04:25.574Z,96390.50
2022-11-22T22:07:29.770Z,96389.25
2022-11-22T22:10:19.610Z,96383.47
2022-11-22T22:13:06.769Z,96391.56
2022-11-22T22:15:58.694Z,96380.28
2022-11-22T22:18:45.680Z,96390.13
2022-11-22T22:21:32.544Z,96391.41
2022-11-22T22:24:19.507Z,96403.97
2022-11-22T22:27:06.406Z,96400.16
2022-11-22T22:29:53.365Z,96402.69
2022-11-22T22:32:40.257Z,96409.16
2022-11-22T22:35:27.172Z,96411.00
2022-11-22T22:38:14.096Z,96419.81
2022-11-22T22:41:03.584Z,96411.16
2022-11-22T22:43:50.498Z,96412.03
2022-11-22T22:46:37.413Z,96415.13
2022-11-22T22:49:24.276Z,96416.00
2022-11-22T22:52:11.413Z,96413.28
2022-11-22T22:54:58.310Z,96414.91
2022-11-22T22:57:45.282Z,96412.56
2022-11-22T23:00:32.206Z,96412.03
2022-11-22T23:03:19.577Z,96410.56
2022-11-22T23:06:11.634Z,96404.31
2022-11-22T23:08:59.634Z,96410.94
2022-11-22T23:12:05.407Z,96412.56
2022-11-22T23:14:52.488Z,96409.50
2022-11-22T23:17:39.500Z,96412.56
2022-11-22T23:20:26.416Z,96417.25
2022-11-22T23:23:13.333Z,96411.00
2022-11-22T23:26:18.584Z,96414.91
2022-11-22T23:29:05.494Z,96421.56
2022-11-22T23:31:52.768Z,96415.25
2022-11-22T23:34:39.788Z,96413.28
2022-11-22T23:37:26.684Z,96419.94
2022-11-22T23:40:13.905Z,96410.22
2022-11-22T23:43:00.871Z,96411.50
2022-11-22T23:45:47.819Z,96419.94
2022-11-22T23:48:34.706Z,96417.22
2022-11-22T23:51:22.579Z,96416.19
2022-11-22T23:54:10.634Z,96404.34
2022-11-22T23:56:57.533Z,96401.25
2022-11-22T23:59:44.497Z,96413.47
